sensor_id;sensor_type;location;lat;lon;timestamp;pressure;altitude;pressure_sealevel;temperature;humidity
45523;BME280;31254;51.680;5.394;2023-08-06T00:01:50;100411.91;;;16.90;75.26
45523;BME280;31254;51.680;5.394;2023-08-06T00:04:20;100422.72;;;16.92;75.49
45523;BME280;31254;51.680;5.394;2023-08-06T00:06:47;100420.63;;;16.94;75.36
45523;BME280;31254;51.680;5.394;2023-08-06T00:09:16;100409.56;;;16.87;75.70
45523;BME280;31254;51.680;5.394;2023-08-06T00:11:43;100410.41;;;16.88;75.34
45523;BME280;31254;51.680;5.394;2023-08-06T00:14:12;100311.91;;;16.26;75.89
45523;BME280;31254;51.680;5.394;2023-08-06T00:16:45;100405.69;;;16.81;75.40
45523;BME280;31254;51.680;5.394;2023-08-06T00:19:11;100418.25;;;16.91;75.33
45523;BME280;31254;51.680;5.394;2023-08-06T00:21:38;100363.16;;;16.56;75.44
45523;BME280;31254;51.680;5.394;2023-08-06T00:24:05;100413.38;;;16.86;75.71
45523;BME280;31254;51.680;5.394;2023-08-06T00:26:32;100405.38;;;16.91;75.50
45523;BME280;31254;51.680;5.394;2023-08-06T00:28:59;100421.91;;;16.91;76.05
45523;BME280;31254;51.680;5.394;2023-08-06T00:31:27;100410.41;;;16.88;75.77
45523;BME280;31254;51.680;5.394;2023-08-06T00:33:54;100342.72;;;16.43;75.70
45523;BME280;31254;51.680;5.394;2023-08-06T00:36:21;100413.81;;;16.90;75.74
45523;BME280;31254;51.680;5.394;2023-08-06T00:38:47;100354.25;;;16.54;76.23
45523;BME280;31254;51.680;5.394;2023-08-06T00:41:16;100412.94;;;16.89;75.58
45523;BME280;31254;51.680;5.394;2023-08-06T00:43:43;100404.88;;;16.88;75.44
45523;BME280;31254;51.680;5.394;2023-08-06T00:46:10;100400.19;;;16.81;75.68
45523;BME280;31254;51.680;5.394;2023-08-06T00:48:37;100393.56;;;16.76;75.71
45523;BME280;31254;51.680;5.394;2023-08-06T00:51:04;100402.53;;;16.85;75.80
45523;BME280;31254;51.680;5.394;2023-08-06T00:53:31;100402.53;;;16.85;75.72
45523;BME280;31254;51.680;5.394;2023-08-06T00:56:00;100408.25;;;16.83;76.09
45523;BME280;31254;51.680;5.394;2023-08-06T00:58:27;100404.41;;;16.84;76.29
45523;BME280;31254;51.680;5.394;2023-08-06T01:00:54;100387.41;;;16.74;75.74
45523;BME280;31254;51.680;5.394;2023-08-06T01:03:21;100372.97;;;16.65;76.21
45523;BME280;31254;51.680;5.394;2023-08-06T01:05:47;100387.41;;;16.74;76.01
45523;BME280;31254;51.680;5.394;2023-08-06T01:08:55;100406.72;;;16.80;76.04
45523;BME280;31254;51.680;5.394;2023-08-06T01:14:33;100384.84;;;16.72;76.12
45523;BME280;31254;51.680;5.394;2023-08-06T01:17:04;100392.53;;;16.77;76.21
45523;BME280;31254;51.680;5.394;2023-08-06T01:19:32;100382.09;;;16.72;75.84
45523;BME280;31254;51.680;5.394;2023-08-06T01:21:58;100396.31;;;16.76;76.52
45523;BME280;31254;51.680;5.394;2023-08-06T01:24:27;100383.16;;;16.71;76.13
45523;BME280;31254;51.680;5.394;2023-08-06T01:27:07;100385.25;;;16.69;76.02
45523;BME280;31254;51.680;5.394;2023-08-06T01:29:41;100399.06;;;16.76;76.13
45523;BME280;31254;51.680;5.394;2023-08-06T01:32:10;100351.16;;;16.42;76.27
45523;BME280;31254;51.680;5.394;2023-08-06T01:34:40;100397.59;;;16.73;76.59
45523;BME280;31254;51.680;5.394;2023-08-06T01:37:07;100372.84;;;16.52;76.42
45523;BME280;31254;51.680;5.394;2023-08-06T01:39:35;100391.41;;;16.71;76.80
45523;BME280;31254;51.680;5.394;2023-08-06T01:42:02;100399.03;;;16.69;76.34
45523;BME280;31254;51.680;5.394;2023-08-06T01:44:29;100378.78;;;16.55;76.61
45523;BME280;31254;51.680;5.394;2023-08-06T01:46:56;100355.88;;;16.48;76.31
45523;BME280;31254;51.680;5.394;2023-08-06T01:49:23;100392.88;;;16.67;76.17
45523;BME280;31254;51.680;5.394;2023-08-06T01:51:49;100397.31;;;16.68;76.19
45523;BME280;31254;51.680;5.394;2023-08-06T01:54:16;100395.84;;;16.66;76.59
45523;BME280;31254;51.680;5.394;2023-08-06T01:56:43;100375.78;;;16.50;76.59
45523;BME280;31254;51.680;5.394;2023-08-06T01:59:10;100317.16;;;16.21;76.46
45523;BME280;31254;51.680;5.394;2023-08-06T02:01:39;100373.56;;;16.60;76.39
45523;BME280;31254;51.680;5.394;2023-08-06T02:04:08;100350.56;;;16.47;76.52
45523;BME280;31254;51.680;5.394;2023-08-06T02:06:35;100360.53;;;16.48;76.26
45523;BME280;31254;51.680;5.394;2023-08-06T02:09:04;100358.19;;;16.44;76.50
45523;BME280;31254;51.680;5.394;2023-08-06T02:11:31;100381.34;;;16.57;76.46
45523;BME280;31254;51.680;5.394;2023-08-06T02:14:00;100391.56;;;16.63;76.45
45523;BME280;31254;51.680;5.394;2023-08-06T02:16:26;100392.88;;;16.67;76.55
45523;BME280;31254;51.680;5.394;2023-08-06T02:18:55;100386.97;;;16.70;76.14
45523;BME280;31254;51.680;5.394;2023-08-06T02:21:22;100377.00;;;16.69;76.42
45523;BME280;31254;51.680;5.394;2023-08-06T02:23:51;100369.69;;;16.55;76.47
45523;BME280;31254;51.680;5.394;2023-08-06T02:26:20;100381.63;;;16.62;76.08
45523;BME280;31254;51.680;5.394;2023-08-06T02:28:49;100355.44;;;16.44;76.31
45523;BME280;31254;51.680;5.394;2023-08-06T02:31:16;100331.97;;;16.20;76.43
45523;BME280;31254;51.680;5.394;2023-08-06T02:33:43;100387.13;;;16.62;76.61
45523;BME280;31254;51.680;5.394;2023-08-06T02:36:09;100310.28;;;16.11;76.86
45523;BME280;31254;51.680;5.394;2023-08-06T02:38:36;100362.19;;;16.42;76.59
45523;BME280;31254;51.680;5.394;2023-08-06T02:41:04;100394.91;;;16.58;76.59
45523;BME280;31254;51.680;5.394;2023-08-06T02:43:33;100378.78;;;16.55;76.58
45523;BME280;31254;51.680;5.394;2023-08-06T02:46:02;100243.47;;;15.67;76.22
45523;BME280;31254;51.680;5.394;2023-08-06T02:48:29;100383.91;;;16.58;76.49
45523;BME280;31254;51.680;5.394;2023-08-06T02:50:59;100349.88;;;16.38;76.64
45523;BME280;31254;51.680;5.394;2023-08-06T02:53:33;100361.78;;;16.45;76.59
45523;BME280;31254;51.680;5.394;2023-08-06T02:56:00;100383.06;;;16.58;76.58
45523;BME280;31254;51.680;5.394;2023-08-06T02:58:29;100367.72;;;16.49;76.57
45523;BME280;31254;51.680;5.394;2023-08-06T03:01:04;100344.97;;;16.33;76.86
45523;BME280;31254;51.680;5.394;2023-08-06T03:03:32;100375.19;;;16.55;77.09
45523;BME280;31254;51.680;5.394;2023-08-06T03:06:00;100372.84;;;16.52;76.93
45523;BME280;31254;51.680;5.394;2023-08-06T03:08:27;100365.56;;;16.44;76.67
45523;BME280;31254;51.680;5.394;2023-08-06T03:10:54;100372.19;;;16.50;76.58
45523;BME280;31254;51.680;5.394;2023-08-06T03:13:21;100378.75;;;16.49;76.84
45523;BME280;31254;51.680;5.394;2023-08-06T03:15:58;100375.34;;;16.47;76.76
45523;BME280;31254;51.680;5.394;2023-08-06T03:18:25;100381.09;;;16.52;76.76
45523;BME280;31254;51.680;5.394;2023-08-06T03:20:53;100368.31;;;16.44;76.55
45523;BME280;31254;51.680;5.394;2023-08-06T03:23:20;100281.50;;;15.85;76.15
45523;BME280;31254;51.680;5.394;2023-08-06T03:25:47;100124.34;;;14.88;76.66
45523;BME280;31254;51.680;5.394;2023-08-06T03:28:13;100370.88;;;16.45;76.57
45523;BME280;31254;51.680;5.394;2023-08-06T03:30:40;100381.53;;;16.55;76.53
45523;BME280;31254;51.680;5.394;2023-08-06T03:33:07;100383.84;;;16.52;76.33
45523;BME280;31254;51.680;5.394;2023-08-06T03:35:34;100383.66;;;16.53;76.31
45523;BME280;31254;51.680;5.394;2023-08-06T03:38:03;100379.66;;;16.56;76.40
45523;BME280;31254;51.680;5.394;2023-08-06T03:40:30;100384.97;;;16.57;76.14
45523;BME280;31254;51.680;5.394;2023-08-06T03:42:58;100383.25;;;16.56;76.14
45523;BME280;31254;51.680;5.394;2023-08-06T03:45:27;100377.94;;;16.55;76.11
45523;BME280;31254;51.680;5.394;2023-08-06T03:47:54;100371.75;;;16.46;76.20
45523;BME280;31254;51.680;5.394;2023-08-06T03:50:21;100367.72;;;16.49;75.97
45523;BME280;31254;51.680;5.394;2023-08-06T03:52:47;100380.69;;;16.55;76.20
45523;BME280;31254;51.680;5.394;2023-08-06T03:55:14;100380.69;;;16.55;76.28
45523;BME280;31254;51.680;5.394;2023-08-06T03:57:41;100389.38;;;16.52;76.08
45523;BME280;31254;51.680;5.394;2023-08-06T04:00:10;100389.56;;;16.50;76.24
45523;BME280;31254;51.680;5.394;2023-08-06T04:02:39;100387.28;;;16.54;75.76
45523;BME280;31254;51.680;5.394;2023-08-06T04:05:06;100385.56;;;16.53;75.96
45523;BME280;31254;51.680;5.394;2023-08-06T04:07:33;100380.22;;;16.44;76.00
45523;BME280;31254;51.680;5.394;2023-08-06T04:10:04;100384.25;;;16.49;76.10
45523;BME280;31254;51.680;5.394;2023-08-06T04:12:31;100374.47;;;16.39;75.84
45523;BME280;31254;51.680;5.394;2023-08-06T04:15:00;100242.72;;;15.58;75.95
45523;BME280;31254;51.680;5.394;2023-08-06T04:17:29;100398.69;;;16.51;75.95
45523;BME280;31254;51.680;5.394;2023-08-06T04:19:56;100375.25;;;16.33;76.26
45523;BME280;31254;51.680;5.394;2023-08-06T04:22:27;100352.94;;;16.21;76.11
45523;BME280;31254;51.680;5.394;2023-08-06T04:24:53;100401.63;;;16.49;76.10
45523;BME280;31254;51.680;5.394;2023-08-06T04:27:20;100386.50;;;16.38;75.88
45523;BME280;31254;51.680;5.394;2023-08-06T04:29:47;100407.34;;;16.48;75.83
45523;BME280;31254;51.680;5.394;2023-08-06T04:32:16;100383.31;;;16.35;75.84
45523;BME280;31254;51.680;5.394;2023-08-06T04:34:43;100406.47;;;16.47;76.22
45523;BME280;31254;51.680;5.394;2023-08-06T04:37:10;100406.47;;;16.47;75.98
45523;BME280;31254;51.680;5.394;2023-08-06T04:39:39;100401.13;;;16.39;75.91
45523;BME280;31254;51.680;5.394;2023-08-06T04:42:06;100414.94;;;16.45;76.11
45523;BME280;31254;51.680;5.394;2023-08-06T04:44:38;100408.59;;;16.45;76.11
45523;BME280;31254;51.680;5.394;2023-08-06T04:47:04;100325.38;;;15.93;76.21
45523;BME280;31254;51.680;5.394;2023-08-06T04:49:31;100406.88;;;16.44;76.25
45523;BME280;31254;51.680;5.394;2023-08-06T04:52:00;100412.47;;;16.51;76.33
45523;BME280;31254;51.680;5.394;2023-08-06T04:54:27;100321.59;;;15.94;76.32
45523;BME280;31254;51.680;5.394;2023-08-06T04:56:56;100412.59;;;16.42;76.48
45523;BME280;31254;51.680;5.394;2023-08-06T04:59:23;100403.81;;;16.32;76.05
45523;BME280;31254;51.680;5.394;2023-08-06T05:01:49;100417.03;;;16.43;76.32
45523;BME280;31254;51.680;5.394;2023-08-06T05:04:16;100424.50;;;16.50;76.80
45523;BME280;31254;51.680;5.394;2023-08-06T05:06:43;100405.59;;;16.40;76.47
45523;BME280;31254;51.680;5.394;2023-08-06T05:09:10;100430.00;;;16.50;76.79
45523;BME280;31254;51.680;5.394;2023-08-06T05:11:39;100435.53;;;16.50;76.70
45523;BME280;31254;51.680;5.394;2023-08-06T05:14:10;100431.25;;;16.47;76.75
45523;BME280;31254;51.680;5.394;2023-08-06T05:16:39;100431.44;;;16.45;76.60
45523;BME280;31254;51.680;5.394;2023-08-06T05:19:06;100432.78;;;16.50;76.71
45523;BME280;31254;51.680;5.394;2023-08-06T05:21:32;100424.25;;;16.44;76.57
45523;BME280;31254;51.680;5.394;2023-08-06T05:23:59;100448.91;;;16.53;76.74
45523;BME280;31254;51.680;5.394;2023-08-06T05:26:28;100449.34;;;16.56;76.66
45523;BME280;31254;51.680;5.394;2023-08-06T05:28:55;100447.44;;;16.57;76.93
45523;BME280;31254;51.680;5.394;2023-08-06T05:31:21;100436.56;;;16.49;76.56
45523;BME280;31254;51.680;5.394;2023-08-06T05:33:48;100441.66;;;16.52;76.73
45523;BME280;31254;51.680;5.394;2023-08-06T05:36:15;100430.22;;;16.48;76.70
45523;BME280;31254;51.680;5.394;2023-08-06T05:38:44;100449.78;;;16.60;76.99
45523;BME280;31254;51.680;5.394;2023-08-06T05:41:10;100459.75;;;16.61;76.90
45523;BME280;31254;51.680;5.394;2023-08-06T05:43:37;100458.44;;;16.57;76.98
45523;BME280;31254;51.680;5.394;2023-08-06T05:46:04;100442.75;;;16.51;76.92
45523;BME280;31254;51.680;5.394;2023-08-06T05:48:31;100473.78;;;16.66;77.02
45523;BME280;31254;51.680;5.394;2023-08-06T05:51:02;100467.22;;;16.67;76.86
45523;BME280;31254;51.680;5.394;2023-08-06T05:53:29;100474.03;;;16.71;76.75
45523;BME280;31254;51.680;5.394;2023-08-06T05:55:55;100473.84;;;16.73;77.14
45523;BME280;31254;51.680;5.394;2023-08-06T05:58:24;100451.66;;;16.53;76.69
45523;BME280;31254;51.680;5.394;2023-08-06T06:00:52;100465.47;;;16.59;76.83
45523;BME280;31254;51.680;5.394;2023-08-06T06:03:19;100472.34;;;16.70;76.92
45523;BME280;31254;51.680;5.394;2023-08-06T06:05:46;100466.16;;;16.68;76.71
45523;BME280;31254;51.680;5.394;2023-08-06T06:08:12;100477.03;;;16.76;76.56
45523;BME280;31254;51.680;5.394;2023-08-06T06:10:39;100494.13;;;16.87;76.67
45523;BME280;31254;51.680;5.394;2023-08-06T06:13:05;100485.09;;;16.78;76.96
45523;BME280;31254;51.680;5.394;2023-08-06T06:15:35;100489.25;;;16.89;76.78
45523;BME280;31254;51.680;5.394;2023-08-06T06:18:07;100486.59;;;16.80;76.46
45523;BME280;31254;51.680;5.394;2023-08-06T06:20:34;100512.22;;;16.96;76.64
45523;BME280;31254;51.680;5.394;2023-08-06T06:23:00;100513.69;;;16.98;76.73
45523;BME280;31254;51.680;5.394;2023-08-06T06:25:27;100520.72;;;17.01;76.77
45523;BME280;31254;51.680;5.394;2023-08-06T06:27:54;100510.94;;;16.98;76.95
45523;BME280;31254;51.680;5.394;2023-08-06T06:30:20;100524.75;;;17.05;77.00
45523;BME280;31254;51.680;5.394;2023-08-06T06:32:49;100526.28;;;17.08;77.23
45523;BME280;31254;51.680;5.394;2023-08-06T06:35:21;100511.78;;;16.99;77.32
45523;BME280;31254;51.680;5.394;2023-08-06T06:37:48;100528.44;;;17.12;77.27
45523;BME280;31254;51.680;5.394;2023-08-06T06:40:15;100525.00;;;17.10;77.59
45523;BME280;31254;51.680;5.394;2023-08-06T06:42:42;100525.44;;;17.07;77.64
45523;BME280;31254;51.680;5.394;2023-08-06T06:45:09;100518.59;;;17.03;78.07
45523;BME280;31254;51.680;5.394;2023-08-06T06:47:38;100517.75;;;17.03;77.66
45523;BME280;31254;51.680;5.394;2023-08-06T06:50:05;100539.06;;;17.15;77.58
45523;BME280;31254;51.680;5.394;2023-08-06T06:52:32;100532.22;;;17.11;77.72
45523;BME280;31254;51.680;5.394;2023-08-06T06:54:59;100528.44;;;17.12;77.46
45523;BME280;31254;51.680;5.394;2023-08-06T06:57:26;100545.25;;;17.24;77.77
45523;BME280;31254;51.680;5.394;2023-08-06T06:59:55;100543.75;;;17.22;77.41
45523;BME280;31254;51.680;5.394;2023-08-06T07:02:21;100542.47;;;17.17;77.38
45523;BME280;31254;51.680;5.394;2023-08-06T07:04:52;100559.47;;;17.28;77.50
45523;BME280;31254;51.680;5.394;2023-08-06T07:07:18;100528.44;;;17.12;77.75
45523;BME280;31254;51.680;5.394;2023-08-06T07:09:47;100561.19;;;17.29;77.55
45523;BME280;31254;51.680;5.394;2023-08-06T07:12:16;100556.78;;;17.34;77.68
45523;BME280;31254;51.680;5.394;2023-08-06T07:14:43;100566.56;;;17.37;77.90
45523;BME280;31254;51.680;5.394;2023-08-06T07:17:12;100563.56;;;17.32;78.20
45523;BME280;31254;51.680;5.394;2023-08-06T07:19:38;100567.59;;;17.36;78.26
45523;BME280;31254;51.680;5.394;2023-08-06T07:22:05;100575.66;;;17.38;78.03
45523;BME280;31254;51.680;5.394;2023-08-06T07:24:32;100578.97;;;17.26;78.90
45523;BME280;31254;51.680;5.394;2023-08-06T07:26:58;100585.09;;;17.22;78.73
45523;BME280;31254;51.680;5.394;2023-08-06T07:29:27;100589.97;;;17.20;78.95
45523;BME280;31254;51.680;5.394;2023-08-06T07:31:54;100583.16;;;17.15;79.14
45523;BME280;31254;51.680;5.394;2023-08-06T07:34:22;100578.84;;;17.06;79.14
45523;BME280;31254;51.680;5.394;2023-08-06T07:36:48;100600.09;;;17.12;78.97
45523;BME280;31254;51.680;5.394;2023-08-06T07:39:18;100594.97;;;17.09;79.12
45523;BME280;31254;51.680;5.394;2023-08-06T07:41:44;100599.94;;;16.99;79.37
45523;BME280;31254;51.680;5.394;2023-08-06T07:44:12;100601.03;;;16.98;79.37
45523;BME280;31254;51.680;5.394;2023-08-06T07:46:39;100603.97;;;16.96;79.72
45523;BME280;31254;51.680;5.394;2023-08-06T07:49:06;100613.09;;;16.97;79.75
45523;BME280;31254;51.680;5.394;2023-08-06T07:51:35;100606.94;;;16.95;79.73
45523;BME280;31254;51.680;5.394;2023-08-06T07:54:05;100604.22;;;16.80;79.96
45523;BME280;31254;51.680;5.394;2023-08-06T07:56:32;100617.88;;;16.88;79.99
45523;BME280;31254;51.680;5.394;2023-08-06T07:58:58;100629.56;;;16.90;80.23
45523;BME280;31254;51.680;5.394;2023-08-06T08:01:25;100632.50;;;16.89;80.24
45523;BME280;31254;51.680;5.394;2023-08-06T08:03:52;100631.66;;;16.88;80.36
45523;BME280;31254;51.680;5.394;2023-08-06T08:06:21;100626.06;;;16.81;80.23
45523;BME280;31254;51.680;5.394;2023-08-06T08:08:50;100643.91;;;16.86;80.60
45523;BME280;31254;51.680;5.394;2023-08-06T08:11:20;100635.81;;;16.84;80.39
45523;BME280;31254;51.680;5.394;2023-08-06T08:13:47;100636.19;;;16.81;80.15
45523;BME280;31254;51.680;5.394;2023-08-06T08:16:14;100648.94;;;16.82;80.29
45523;BME280;31254;51.680;5.394;2023-08-06T08:18:40;100642.59;;;16.81;80.36
45523;BME280;31254;51.680;5.394;2023-08-06T08:21:09;100612.75;;;16.63;80.29
45523;BME280;31254;51.680;5.394;2023-08-06T08:23:38;100645.53;;;16.80;80.31
45523;BME280;31254;51.680;5.394;2023-08-06T08:26:05;100644.41;;;16.74;80.66
45523;BME280;31254;51.680;5.394;2023-08-06T08:28:34;100648.22;;;16.73;80.35
45523;BME280;31254;51.680;5.394;2023-08-06T08:31:01;100662.44;;;16.77;80.66
45523;BME280;31254;51.680;5.394;2023-08-06T08:33:30;100661.56;;;16.76;80.58
45523;BME280;31254;51.680;5.394;2023-08-06T08:35:57;100633.63;;;16.58;80.45
45523;BME280;31254;51.680;5.394;2023-08-06T08:38:23;100662.84;;;16.74;80.72
45523;BME280;31254;51.680;5.394;2023-08-06T08:40:51;100665.41;;;16.75;81.33
45523;BME280;31254;51.680;5.394;2023-08-06T08:43:21;100652.41;;;16.69;81.10
45523;BME280;31254;51.680;5.394;2023-08-06T08:45:53;100642.53;;;16.60;81.30
45523;BME280;31254;51.680;5.394;2023-08-06T08:48:25;100675.34;;;16.76;81.53
45523;BME280;31254;51.680;5.394;2023-08-06T08:50:56;100656.59;;;16.65;81.78
45523;BME280;31254;51.680;5.394;2023-08-06T08:53:22;100614.88;;;16.47;81.80
45523;BME280;31254;51.680;5.394;2023-08-06T08:55:50;100670.91;;;16.75;81.83
45523;BME280;31254;51.680;5.394;2023-08-06T08:58:17;100651.09;;;16.65;81.98
45523;BME280;31254;51.680;5.394;2023-08-06T09:00:46;100676.47;;;16.82;81.99
45523;BME280;31254;51.680;5.394;2023-08-06T09:03:16;100546.16;;;16.02;81.32
45523;BME280;31254;51.680;5.394;2023-08-06T09:05:50;100682.56;;;16.77;82.21
45523;BME280;31254;51.680;5.394;2023-08-06T09:08:23;100684.66;;;16.90;82.18
45523;BME280;31254;51.680;5.394;2023-08-06T09:10:51;100695.03;;;16.88;82.54
45523;BME280;31254;51.680;5.394;2023-08-06T09:13:20;100697.78;;;16.88;82.79
45523;BME280;31254;51.680;5.394;2023-08-06T09:15:47;100702.50;;;16.94;82.90
45523;BME280;31254;51.680;5.394;2023-08-06T09:18:25;100681.34;;;16.80;82.88
45523;BME280;31254;51.680;5.394;2023-08-06T09:20:53;100708.22;;;16.93;83.04
45523;BME280;31254;51.680;5.394;2023-08-06T09:23:19;100719.13;;;17.01;83.07
45523;BME280;31254;51.680;5.394;2023-08-06T09:25:49;100716.03;;;17.11;82.55
45523;BME280;31254;51.680;5.394;2023-08-06T09:28:17;100716.34;;;17.01;82.75
45523;BME280;31254;51.680;5.394;2023-08-06T09:30:47;100721.69;;;17.03;83.03
45523;BME280;31254;51.680;5.394;2023-08-06T09:33:18;100729.75;;;17.04;82.90
45523;BME280;31254;51.680;5.394;2023-08-06T09:35:50;100728.28;;;17.08;82.77
45523;BME280;31254;51.680;5.394;2023-08-06T09:38:21;100682.13;;;16.74;83.01
45523;BME280;31254;51.680;5.394;2023-08-06T09:40:48;100714.38;;;16.95;83.19
45523;BME280;31254;51.680;5.394;2023-08-06T09:43:14;100725.41;;;16.95;83.36
45523;BME280;31254;51.680;5.394;2023-08-06T09:45:48;100735.44;;;17.03;83.42
45523;BME280;31254;51.680;5.394;2023-08-06T09:48:19;100743.13;;;17.07;83.04
45523;BME280;31254;51.680;5.394;2023-08-06T09:50:51;100711.75;;;16.87;83.32
45523;BME280;31254;51.680;5.394;2023-08-06T09:53:18;100734.50;;;16.95;83.32
45523;BME280;31254;51.680;5.394;2023-08-06T09:55:46;100744.75;;;17.02;82.86
45523;BME280;31254;51.680;5.394;2023-08-06T09:58:13;100753.34;;;17.13;83.00
45523;BME280;31254;51.680;5.394;2023-08-06T10:00:43;100753.75;;;17.10;82.67
45523;BME280;31254;51.680;5.394;2023-08-06T10:03:10;100761.81;;;17.12;83.07
45523;BME280;31254;51.680;5.394;2023-08-06T10:05:41;100744.94;;;17.00;83.07
45523;BME280;31254;51.680;5.394;2023-08-06T10:08:08;100771.81;;;17.13;83.14
45523;BME280;31254;51.680;5.394;2023-08-06T10:10:37;100770.09;;;17.12;83.06
45523;BME280;31254;51.680;5.394;2023-08-06T10:13:04;100766.50;;;17.11;83.06
45523;BME280;31254;51.680;5.394;2023-08-06T10:15:33;100765.44;;;17.12;83.29
45523;BME280;31254;51.680;5.394;2023-08-06T10:18:01;100700.94;;;16.70;83.22
45523;BME280;31254;51.680;5.394;2023-08-06T10:20:33;100771.63;;;17.14;83.29
45523;BME280;31254;51.680;5.394;2023-08-06T10:23:06;100765.84;;;17.09;83.30
45523;BME280;31254;51.680;5.394;2023-08-06T10:25:35;100772.25;;;17.16;83.32
45523;BME280;31254;51.680;5.394;2023-08-06T10:28:11;100779.31;;;17.19;83.12
45523;BME280;31254;51.680;5.394;2023-08-06T10:30:46;100766.28;;;17.13;83.23
45523;BME280;31254;51.680;5.394;2023-08-06T10:33:13;100780.78;;;17.22;83.47
45523;BME280;31254;51.680;5.394;2023-08-06T10:35:46;100777.84;;;17.23;83.42
45523;BME280;31254;51.680;5.394;2023-08-06T10:38:18;100773.59;;;17.21;83.50
45523;BME280;31254;51.680;5.394;2023-08-06T10:40:50;100789.34;;;17.27;83.71
45523;BME280;31254;51.680;5.394;2023-08-06T10:43:27;100778.34;;;17.27;83.60
45523;BME280;31254;51.680;5.394;2023-08-06T10:45:55;100724.38;;;16.96;83.88
45523;BME280;31254;51.680;5.394;2023-08-06T10:48:34;100778.78;;;17.30;83.98
45523;BME280;31254;51.680;5.394;2023-08-06T10:51:01;100749.94;;;17.11;83.87
45523;BME280;31254;51.680;5.394;2023-08-06T10:53:29;100767.97;;;17.29;84.14
45523;BME280;31254;51.680;5.394;2023-08-06T10:56:00;100782.91;;;17.41;84.19
45523;BME280;31254;51.680;5.394;2023-08-06T10:58:33;100787.38;;;17.42;84.54
45523;BME280;31254;51.680;5.394;2023-08-06T11:01:02;100779.09;;;17.42;84.14
45523;BME280;31254;51.680;5.394;2023-08-06T11:03:31;100793.03;;;17.55;83.94
45523;BME280;31254;51.680;5.394;2023-08-06T11:05:59;100801.84;;;17.66;83.88
45523;BME280;31254;51.680;5.394;2023-08-06T11:08:27;100797.50;;;17.57;84.10
45523;BME280;31254;51.680;5.394;2023-08-06T11:10:55;100794.16;;;17.61;84.32
45523;BME280;31254;51.680;5.394;2023-08-06T11:13:29;100767.03;;;17.43;84.38
45523;BME280;31254;51.680;5.394;2023-08-06T11:15:59;100784.34;;;17.59;83.96
45523;BME280;31254;51.680;5.394;2023-08-06T11:18:26;100780.16;;;17.63;84.04
45523;BME280;31254;51.680;5.394;2023-08-06T11:20:52;100786.91;;;17.60;84.23
45523;BME280;31254;51.680;5.394;2023-08-06T11:23:19;100796.06;;;17.61;84.43
45523;BME280;31254;51.680;5.394;2023-08-06T11:25:51;100798.69;;;17.69;83.75
45523;BME280;31254;51.680;5.394;2023-08-06T11:28:20;100799.97;;;17.73;84.23
45523;BME280;31254;51.680;5.394;2023-08-06T11:30:48;100802.53;;;17.75;84.05
45523;BME280;31254;51.680;5.394;2023-08-06T11:33:28;100800.81;;;17.73;84.05
45523;BME280;31254;51.680;5.394;2023-08-06T11:35:59;100792.78;;;17.72;84.07
45523;BME280;31254;51.680;5.394;2023-08-06T11:38:32;100811.94;;;17.80;84.11
45523;BME280;31254;51.680;5.394;2023-08-06T11:40:59;100805.81;;;17.85;83.68
45523;BME280;31254;51.680;5.394;2023-08-06T11:43:25;100806.63;;;17.79;84.00
45523;BME280;31254;51.680;5.394;2023-08-06T11:45:55;100814.09;;;17.85;83.56
45523;BME280;31254;51.680;5.394;2023-08-06T11:48:25;100815.81;;;17.86;83.67
45523;BME280;31254;51.680;5.394;2023-08-06T11:50:54;100802.59;;;17.81;83.61
45523;BME280;31254;51.680;5.394;2023-08-06T11:53:21;100814.75;;;17.87;83.53
45523;BME280;31254;51.680;5.394;2023-08-06T11:55:48;100811.63;;;17.90;83.40
45523;BME280;31254;51.680;5.394;2023-08-06T11:58:16;100809.63;;;17.84;83.56
45523;BME280;31254;51.680;5.394;2023-08-06T12:00:43;100815.88;;;17.93;83.37
45523;BME280;31254;51.680;5.394;2023-08-06T12:03:10;100814.66;;;17.95;83.62
45523;BME280;31254;51.680;5.394;2023-08-06T12:05:37;100824.41;;;17.98;83.73
45523;BME280;31254;51.680;5.394;2023-08-06T12:08:05;100822.13;;;18.01;83.50
45523;BME280;31254;51.680;5.394;2023-08-06T12:10:32;100825.34;;;18.05;83.74
45523;BME280;31254;51.680;5.394;2023-08-06T12:13:02;100813.38;;;17.98;83.65
45523;BME280;31254;51.680;5.394;2023-08-06T12:15:31;100767.72;;;17.73;83.75
45523;BME280;31254;51.680;5.394;2023-08-06T12:17:59;100826.03;;;18.14;83.85
45523;BME280;31254;51.680;5.394;2023-08-06T12:20:26;100813.47;;;18.04;83.88
45523;BME280;31254;51.680;5.394;2023-08-06T12:22:54;100837.31;;;18.19;83.94
45523;BME280;31254;51.680;5.394;2023-08-06T12:25:23;100740.09;;;17.67;83.67
45523;BME280;31254;51.680;5.394;2023-08-06T12:27:50;100845.00;;;18.23;83.89
45523;BME280;31254;51.680;5.394;2023-08-06T12:30:17;100826.28;;;18.19;84.09
45523;BME280;31254;51.680;5.394;2023-08-06T12:32:44;100815.25;;;18.19;83.96
45523;BME280;31254;51.680;5.394;2023-08-06T12:35:11;100761.47;;;17.86;84.31
45523;BME280;31254;51.680;5.394;2023-08-06T12:37:40;100821.69;;;18.26;84.03
45523;BME280;31254;51.680;5.394;2023-08-06T12:40:08;100834.09;;;18.37;84.40
45523;BME280;31254;51.680;5.394;2023-08-06T12:42:55;100846.47;;;18.48;84.51
45523;BME280;31254;51.680;5.394;2023-08-06T12:45:22;100775.50;;;18.13;84.18
45523;BME280;31254;51.680;5.394;2023-08-06T12:47:48;100846.09;;;18.57;84.70
45523;BME280;31254;51.680;5.394;2023-08-06T12:50:16;100851.03;;;18.62;84.44
45523;BME280;31254;51.680;5.394;2023-08-06T12:52:44;100832.50;;;18.56;84.60
45523;BME280;31254;51.680;5.394;2023-08-06T12:55:11;100846.59;;;18.68;84.40
45523;BME280;31254;51.680;5.394;2023-08-06T12:57:38;100850.25;;;18.75;84.42
45523;BME280;31254;51.680;5.394;2023-08-06T13:00:28;100846.25;;;18.77;84.44